CheckWX is a tool to help pilots better visualize weather data.  It is not intended as a substitute for an official pre-flight weather briefing.

17:31:43 UTC

KRNH METAR
New Richmond Regional Airport
New Richmond, Wisconsin, USA
Current

17 mins ago

KRNH 211715Z AUTO 33013G23KT 10SM BKN013 OVC020 01/00 A2985 RMK AO2 T00050000
Observed
Nov-21 @ 17:15 UTC
Wind
  • 330° at 13 KTS
  • Gusting to 23 KTS
Visibility
10 SM
Flight Rules
MVFR
Cloud Levels
  • Broken at 1,300' AGL
  • Overcast at 2,000' AGL
Temperature
C / 34°F
Dewpoint
C / 32°F
Humidity
93%
Altimeter
29.85" Hg
Pressure
1010.82 hPa
Previous

37 mins ago

KRNH 211655Z AUTO 34016G21KT 5SM BR BKN011 OVC020 01/00 A2985 RMK AO2 T00060001
Observed
Nov-21 @ 16:55 UTC
Wind
  • 340° at 16 KTS
  • Gusting to 21 KTS
Visibility
5 SM
Flight Rules
MVFR
Conditions
Mist
Cloud Levels
  • Broken at 1,100' AGL
  • Overcast at 2,000' AGL
Temperature
C / 34°F
Dewpoint
C / 32°F
Humidity
93%
Altimeter
29.85" Hg
Pressure
1010.82 hPa
Previous

57 mins ago

KRNH 211635Z AUTO 33016G21KT 4SM BR SCT006 BKN011 OVC019 01/00 A2984 RMK AO2 T00050002
Observed
Nov-21 @ 16:35 UTC
Wind
  • 330° at 16 KTS
  • Gusting to 21 KTS
Visibility
4 SM
Flight Rules
MVFR
Conditions
Mist
Cloud Levels
  • Scattered at 600' AGL
  • Broken at 1,100' AGL
  • Overcast at 1,900' AGL
Temperature
C / 34°F
Dewpoint
C / 32°F
Humidity
93%
Altimeter
29.84" Hg
Pressure
1010.52 hPa